Terminal Aerodrome Forecast
Issued by NWS Raleigh/Durham, NC

Home | Current Version | Previous Version | Text Only | Print | Product List | Glossary On
Versions: 1 2 3 4 5 6 7 8 9 10 11 12 13 14 15 16 17 18 19 20 21 22 23 24 25 26 27 28 29 30 31 32 33 34 35 36 37 38 39
000
FTUS42 KRAH 251315 AAA
TAFRDU
TAF AMD
KRDU 251315Z 2513/2612 20004KT 5SM BR BKN008 OVC015
      TEMPO 2513/2514 6SM BR OVC006
     FM251400 22004KT 6SM BR VCSH BKN009 OVC025
      TEMPO 2515/2518 4SM -TSRAGS BKN012 OVC025CB
     FM251900 31009KT P6SM VCSH BKN020
     FM252100 32006KT P6SM BKN035=

USA.gov is the U.S. government's official web portal to all federal, state and local government web resources and services.